sensor_id;sensor_type;location;lat;lon;timestamp;P1;durP1;ratioP1;P2;durP2;ratioP2
16294;SDS011;8255;49.560;8.244;2022-09-29T00:02:14;2.50;;;2.33;;
16294;SDS011;8255;49.560;8.244;2022-09-29T00:04:40;2.65;;;2.47;;
16294;SDS011;8255;49.560;8.244;2022-09-29T00:07:06;2.53;;;2.42;;
16294;SDS011;8255;49.560;8.244;2022-09-29T00:09:34;3.38;;;2.55;;
16294;SDS011;8255;49.560;8.244;2022-09-29T00:12:00;3.20;;;3.00;;
16294;SDS011;8255;49.560;8.244;2022-09-29T00:14:27;3.28;;;2.90;;
16294;SDS011;8255;49.560;8.244;2022-09-29T00:16:53;2.97;;;2.73;;
16294;SDS011;8255;49.560;8.244;2022-09-29T00:19:19;3.47;;;3.28;;
16294;SDS011;8255;49.560;8.244;2022-09-29T00:21:46;3.97;;;3.55;;
16294;SDS011;8255;49.560;8.244;2022-09-29T00:24:12;3.40;;;3.10;;
16294;SDS011;8255;49.560;8.244;2022-09-29T00:26:40;3.23;;;2.90;;
16294;SDS011;8255;49.560;8.244;2022-09-29T00:29:08;3.20;;;2.90;;
16294;SDS011;8255;49.560;8.244;2022-09-29T00:31:35;3.53;;;3.23;;
16294;SDS011;8255;49.560;8.244;2022-09-29T00:34:01;3.35;;;2.60;;
16294;SDS011;8255;49.560;8.244;2022-09-29T00:36:27;3.00;;;2.80;;
16294;SDS011;8255;49.560;8.244;2022-09-29T00:38:55;3.22;;;3.03;;
16294;SDS011;8255;49.560;8.244;2022-09-29T00:41:22;3.07;;;2.83;;
16294;SDS011;8255;49.560;8.244;2022-09-29T00:43:54;6.37;;;2.73;;
16294;SDS011;8255;49.560;8.244;2022-09-29T00:46:23;3.00;;;2.80;;
16294;SDS011;8255;49.560;8.244;2022-09-29T00:48:51;3.25;;;2.95;;
16294;SDS011;8255;49.560;8.244;2022-09-29T00:51:18;3.03;;;2.83;;
16294;SDS011;8255;49.560;8.244;2022-09-29T00:53:45;2.88;;;2.67;;
16294;SDS011;8255;49.560;8.244;2022-09-29T00:56:12;2.83;;;2.63;;
16294;SDS011;8255;49.560;8.244;2022-09-29T00:58:40;2.80;;;2.60;;
16294;SDS011;8255;49.560;8.244;2022-09-29T01:01:09;3.42;;;2.92;;
16294;SDS011;8255;49.560;8.244;2022-09-29T01:03:37;3.25;;;2.60;;
16294;SDS011;8255;49.560;8.244;2022-09-29T01:06:07;2.72;;;2.50;;
16294;SDS011;8255;49.560;8.244;2022-09-29T01:08:38;2.92;;;2.72;;
16294;SDS011;8255;49.560;8.244;2022-09-29T01:11:06;3.85;;;2.55;;
16294;SDS011;8255;49.560;8.244;2022-09-29T01:13:32;2.72;;;2.53;;
16294;SDS011;8255;49.560;8.244;2022-09-29T01:15:59;4.05;;;2.60;;
16294;SDS011;8255;49.560;8.244;2022-09-29T01:18:27;2.78;;;2.45;;
16294;SDS011;8255;49.560;8.244;2022-09-29T01:20:56;3.42;;;2.92;;
16294;SDS011;8255;49.560;8.244;2022-09-29T01:26:21;2.77;;;2.60;;
16294;SDS011;8255;49.560;8.244;2022-09-29T01:28:59;6.40;;;3.00;;
16294;SDS011;8255;49.560;8.244;2022-09-29T01:31:29;2.70;;;2.50;;
16294;SDS011;8255;49.560;8.244;2022-09-29T01:33:58;3.00;;;2.70;;
16294;SDS011;8255;49.560;8.244;2022-09-29T01:36:27;5.17;;;3.27;;
16294;SDS011;8255;49.560;8.244;2022-09-29T01:38:57;2.90;;;2.70;;
16294;SDS011;8255;49.560;8.244;2022-09-29T01:41:29;2.58;;;2.47;;
16294;SDS011;8255;49.560;8.244;2022-09-29T01:44:01;4.85;;;2.72;;
16294;SDS011;8255;49.560;8.244;2022-09-29T01:46:31;3.00;;;2.80;;
16294;SDS011;8255;49.560;8.244;2022-09-29T01:48:59;3.13;;;2.92;;
16294;SDS011;8255;49.560;8.244;2022-09-29T01:51:28;3.77;;;3.30;;
16294;SDS011;8255;49.560;8.244;2022-09-29T01:53:56;3.78;;;3.47;;
16294;SDS011;8255;49.560;8.244;2022-09-29T01:56:26;4.20;;;3.35;;
16294;SDS011;8255;49.560;8.244;2022-09-29T01:58:54;4.00;;;2.83;;
16294;SDS011;8255;49.560;8.244;2022-09-29T02:01:22;3.78;;;3.47;;
16294;SDS011;8255;49.560;8.244;2022-09-29T02:03:52;5.17;;;3.40;;
16294;SDS011;8255;49.560;8.244;2022-09-29T02:06:22;4.43;;;3.30;;
16294;SDS011;8255;49.560;8.244;2022-09-29T02:08:50;3.50;;;3.20;;
16294;SDS011;8255;49.560;8.244;2022-09-29T02:11:18;5.23;;;3.40;;
16294;SDS011;8255;49.560;8.244;2022-09-29T02:13:45;3.40;;;3.10;;
16294;SDS011;8255;49.560;8.244;2022-09-29T02:16:14;3.10;;;2.90;;
16294;SDS011;8255;49.560;8.244;2022-09-29T02:18:43;3.60;;;3.20;;
16294;SDS011;8255;49.560;8.244;2022-09-29T02:21:14;4.30;;;3.40;;
16294;SDS011;8255;49.560;8.244;2022-09-29T02:23:40;5.20;;;3.50;;
16294;SDS011;8255;49.560;8.244;2022-09-29T02:26:06;4.90;;;3.30;;
16294;SDS011;8255;49.560;8.244;2022-09-29T02:28:33;4.38;;;3.97;;
16294;SDS011;8255;49.560;8.244;2022-09-29T02:30:59;3.38;;;3.22;;
16294;SDS011;8255;49.560;8.244;2022-09-29T02:33:26;3.97;;;3.67;;
16294;SDS011;8255;49.560;8.244;2022-09-29T02:35:58;5.63;;;3.63;;
16294;SDS011;8255;49.560;8.244;2022-09-29T02:38:33;6.07;;;3.77;;
16294;SDS011;8255;49.560;8.244;2022-09-29T02:41:04;4.10;;;3.80;;
16294;SDS011;8255;49.560;8.244;2022-09-29T02:43:37;4.40;;;4.07;;
16294;SDS011;8255;49.560;8.244;2022-09-29T02:46:12;5.37;;;4.00;;
16294;SDS011;8255;49.560;8.244;2022-09-29T02:51:25;5.07;;;4.63;;
16294;SDS011;8255;49.560;8.244;2022-09-29T02:54:04;5.10;;;4.70;;
16294;SDS011;8255;49.560;8.244;2022-09-29T02:56:34;6.43;;;4.53;;
16294;SDS011;8255;49.560;8.244;2022-09-29T02:59:04;5.23;;;4.83;;
16294;SDS011;8255;49.560;8.244;2022-09-29T03:01:32;4.97;;;4.57;;
16294;SDS011;8255;49.560;8.244;2022-09-29T03:03:59;5.20;;;4.80;;
16294;SDS011;8255;49.560;8.244;2022-09-29T03:06:25;5.33;;;4.83;;
16294;SDS011;8255;49.560;8.244;2022-09-29T03:08:52;5.60;;;5.10;;
16294;SDS011;8255;49.560;8.244;2022-09-29T03:11:20;8.27;;;5.20;;
16294;SDS011;8255;49.560;8.244;2022-09-29T03:13:46;5.27;;;4.73;;
16294;SDS011;8255;49.560;8.244;2022-09-29T03:16:13;5.47;;;4.87;;
16294;SDS011;8255;49.560;8.244;2022-09-29T03:18:39;5.93;;;5.43;;
16294;SDS011;8255;49.560;8.244;2022-09-29T03:21:06;6.47;;;5.93;;
16294;SDS011;8255;49.560;8.244;2022-09-29T03:23:32;6.30;;;5.70;;
16294;SDS011;8255;49.560;8.244;2022-09-29T03:25:58;6.87;;;6.27;;
16294;SDS011;8255;49.560;8.244;2022-09-29T03:28:26;7.87;;;7.17;;
16294;SDS011;8255;49.560;8.244;2022-09-29T03:30:52;8.67;;;7.43;;
16294;SDS011;8255;49.560;8.244;2022-09-29T03:33:19;10.50;;;7.90;;
16294;SDS011;8255;49.560;8.244;2022-09-29T03:35:46;11.50;;;8.43;;
16294;SDS011;8255;49.560;8.244;2022-09-29T03:38:12;11.60;;;9.30;;
16294;SDS011;8255;49.560;8.244;2022-09-29T03:40:38;9.60;;;8.60;;
16294;SDS011;8255;49.560;8.244;2022-09-29T03:43:05;10.30;;;8.83;;
16294;SDS011;8255;49.560;8.244;2022-09-29T03:45:32;11.87;;;9.30;;
16294;SDS011;8255;49.560;8.244;2022-09-29T03:47:59;10.40;;;9.30;;
16294;SDS011;8255;49.560;8.244;2022-09-29T03:50:25;20.47;;;8.93;;
16294;SDS011;8255;49.560;8.244;2022-09-29T03:52:51;10.20;;;8.90;;
16294;SDS011;8255;49.560;8.244;2022-09-29T03:55:18;11.23;;;9.03;;
16294;SDS011;8255;49.560;8.244;2022-09-29T03:57:44;13.50;;;9.50;;
16294;SDS011;8255;49.560;8.244;2022-09-29T04:00:11;12.63;;;9.50;;
16294;SDS011;8255;49.560;8.244;2022-09-29T04:02:39;13.30;;;10.23;;
16294;SDS011;8255;49.560;8.244;2022-09-29T04:05:07;22.80;;;10.00;;
16294;SDS011;8255;49.560;8.244;2022-09-29T04:07:33;13.03;;;10.70;;
16294;SDS011;8255;49.560;8.244;2022-09-29T04:10:00;11.97;;;9.80;;
16294;SDS011;8255;49.560;8.244;2022-09-29T04:12:26;16.23;;;10.57;;
16294;SDS011;8255;49.560;8.244;2022-09-29T04:14:53;26.47;;;10.30;;
16294;SDS011;8255;49.560;8.244;2022-09-29T04:17:19;15.20;;;11.20;;
16294;SDS011;8255;49.560;8.244;2022-09-29T04:19:47;26.17;;;10.10;;
16294;SDS011;8255;49.560;8.244;2022-09-29T04:22:13;22.93;;;10.17;;
16294;SDS011;8255;49.560;8.244;2022-09-29T04:24:41;18.63;;;9.73;;
16294;SDS011;8255;49.560;8.244;2022-09-29T04:27:08;22.80;;;9.57;;
16294;SDS011;8255;49.560;8.244;2022-09-29T04:29:34;11.33;;;9.47;;
16294;SDS011;8255;49.560;8.244;2022-09-29T04:32:00;11.00;;;7.87;;
16294;SDS011;8255;49.560;8.244;2022-09-29T04:34:27;28.97;;;7.70;;
16294;SDS011;8255;49.560;8.244;2022-09-29T04:36:54;10.23;;;7.93;;
16294;SDS011;8255;49.560;8.244;2022-09-29T04:39:21;17.53;;;7.40;;
16294;SDS011;8255;49.560;8.244;2022-09-29T04:41:47;11.50;;;7.37;;
16294;SDS011;8255;49.560;8.244;2022-09-29T04:44:13;11.60;;;8.13;;
16294;SDS011;8255;49.560;8.244;2022-09-29T04:46:40;7.80;;;7.00;;
16294;SDS011;8255;49.560;8.244;2022-09-29T04:49:06;11.40;;;6.97;;
16294;SDS011;8255;49.560;8.244;2022-09-29T04:51:33;14.77;;;6.87;;
16294;SDS011;8255;49.560;8.244;2022-09-29T04:54:02;8.33;;;7.30;;
16294;SDS011;8255;49.560;8.244;2022-09-29T04:56:28;21.23;;;7.00;;
16294;SDS011;8255;49.560;8.244;2022-09-29T04:58:55;16.03;;;6.40;;
16294;SDS011;8255;49.560;8.244;2022-09-29T05:01:22;10.48;;;7.97;;
16294;SDS011;8255;49.560;8.244;2022-09-29T05:03:48;7.37;;;6.67;;
16294;SDS011;8255;49.560;8.244;2022-09-29T05:06:15;11.20;;;7.95;;
16294;SDS011;8255;49.560;8.244;2022-09-29T05:08:41;35.73;;;6.60;;
16294;SDS011;8255;49.560;8.244;2022-09-29T05:11:09;15.07;;;7.17;;
16294;SDS011;8255;49.560;8.244;2022-09-29T05:13:36;14.40;;;7.87;;
16294;SDS011;8255;49.560;8.244;2022-09-29T05:16:02;9.77;;;7.57;;
16294;SDS011;8255;49.560;8.244;2022-09-29T05:18:30;10.93;;;8.23;;
16294;SDS011;8255;49.560;8.244;2022-09-29T05:21:00;12.30;;;10.20;;
16294;SDS011;8255;49.560;8.244;2022-09-29T05:23:27;17.83;;;10.23;;
16294;SDS011;8255;49.560;8.244;2022-09-29T05:25:53;12.53;;;8.50;;
16294;SDS011;8255;49.560;8.244;2022-09-29T05:28:21;13.13;;;8.07;;
16294;SDS011;8255;49.560;8.244;2022-09-29T05:30:47;14.37;;;8.60;;
16294;SDS011;8255;49.560;8.244;2022-09-29T05:33:14;19.43;;;9.00;;
16294;SDS011;8255;49.560;8.244;2022-09-29T05:35:40;17.33;;;8.60;;
16294;SDS011;8255;49.560;8.244;2022-09-29T05:38:06;9.63;;;8.63;;
16294;SDS011;8255;49.560;8.244;2022-09-29T05:40:34;17.83;;;9.13;;
16294;SDS011;8255;49.560;8.244;2022-09-29T05:43:01;14.43;;;8.77;;
16294;SDS011;8255;49.560;8.244;2022-09-29T05:45:28;15.07;;;9.67;;
16294;SDS011;8255;49.560;8.244;2022-09-29T05:47:55;11.00;;;9.37;;
16294;SDS011;8255;49.560;8.244;2022-09-29T05:50:21;13.13;;;8.73;;
16294;SDS011;8255;49.560;8.244;2022-09-29T05:52:48;16.63;;;8.93;;
16294;SDS011;8255;49.560;8.244;2022-09-29T05:55:14;13.77;;;9.23;;
16294;SDS011;8255;49.560;8.244;2022-09-29T05:57:41;14.80;;;8.97;;
16294;SDS011;8255;49.560;8.244;2022-09-29T06:00:07;10.93;;;8.97;;
16294;SDS011;8255;49.560;8.244;2022-09-29T06:02:38;17.37;;;8.83;;
16294;SDS011;8255;49.560;8.244;2022-09-29T06:05:05;16.57;;;7.93;;
16294;SDS011;8255;49.560;8.244;2022-09-29T06:07:31;14.50;;;8.93;;
16294;SDS011;8255;49.560;8.244;2022-09-29T06:09:57;22.87;;;7.67;;
16294;SDS011;8255;49.560;8.244;2022-09-29T06:12:24;19.50;;;7.60;;
16294;SDS011;8255;49.560;8.244;2022-09-29T06:14:50;8.43;;;6.03;;
16294;SDS011;8255;49.560;8.244;2022-09-29T06:17:17;13.70;;;6.43;;
16294;SDS011;8255;49.560;8.244;2022-09-29T06:19:44;15.00;;;5.80;;
16294;SDS011;8255;49.560;8.244;2022-09-29T06:22:11;13.10;;;6.80;;
16294;SDS011;8255;49.560;8.244;2022-09-29T06:24:37;10.23;;;7.17;;
16294;SDS011;8255;49.560;8.244;2022-09-29T06:27:03;18.20;;;6.33;;
16294;SDS011;8255;49.560;8.244;2022-09-29T06:29:30;10.10;;;6.50;;
16294;SDS011;8255;49.560;8.244;2022-09-29T06:31:56;20.60;;;6.03;;
16294;SDS011;8255;49.560;8.244;2022-09-29T06:34:23;8.00;;;7.20;;
16294;SDS011;8255;49.560;8.244;2022-09-29T06:36:50;11.30;;;7.93;;
16294;SDS011;8255;49.560;8.244;2022-09-29T06:39:35;8.87;;;7.60;;
16294;SDS011;8255;49.560;8.244;2022-09-29T06:42:02;11.97;;;8.50;;
16294;SDS011;8255;49.560;8.244;2022-09-29T06:44:28;9.20;;;8.30;;
16294;SDS011;8255;49.560;8.244;2022-09-29T06:46:55;9.83;;;8.83;;
16294;SDS011;8255;49.560;8.244;2022-09-29T06:49:22;11.87;;;9.60;;
16294;SDS011;8255;49.560;8.244;2022-09-29T06:51:50;11.63;;;10.43;;
16294;SDS011;8255;49.560;8.244;2022-09-29T06:54:18;14.23;;;10.33;;
16294;SDS011;8255;49.560;8.244;2022-09-29T06:56:45;11.60;;;9.60;;
16294;SDS011;8255;49.560;8.244;2022-09-29T06:59:11;15.77;;;9.15;;
16294;SDS011;8255;49.560;8.244;2022-09-29T07:01:38;13.27;;;9.03;;
16294;SDS011;8255;49.560;8.244;2022-09-29T07:04:04;12.45;;;9.70;;
16294;SDS011;8255;49.560;8.244;2022-09-29T07:06:30;10.85;;;8.93;;
16294;SDS011;8255;49.560;8.244;2022-09-29T07:08:58;9.85;;;8.52;;
16294;SDS011;8255;49.560;8.244;2022-09-29T07:11:25;11.73;;;8.57;;
16294;SDS011;8255;49.560;8.244;2022-09-29T07:13:52;9.93;;;7.78;;
16294;SDS011;8255;49.560;8.244;2022-09-29T07:16:18;7.90;;;7.10;;
16294;SDS011;8255;49.560;8.244;2022-09-29T07:18:47;10.50;;;9.32;;
16294;SDS011;8255;49.560;8.244;2022-09-29T07:21:14;9.32;;;8.32;;
16294;SDS011;8255;49.560;8.244;2022-09-29T07:23:42;9.55;;;8.48;;
16294;SDS011;8255;49.560;8.244;2022-09-29T07:26:10;10.82;;;8.23;;
16294;SDS011;8255;49.560;8.244;2022-09-29T07:28:37;9.50;;;8.45;;
16294;SDS011;8255;49.560;8.244;2022-09-29T07:31:04;10.85;;;8.63;;
16294;SDS011;8255;49.560;8.244;2022-09-29T07:33:31;10.07;;;8.38;;
16294;SDS011;8255;49.560;8.244;2022-09-29T07:35:58;10.23;;;8.60;;
16294;SDS011;8255;49.560;8.244;2022-09-29T07:38:24;9.35;;;8.18;;
16294;SDS011;8255;49.560;8.244;2022-09-29T07:40:51;9.75;;;8.68;;
16294;SDS011;8255;49.560;8.244;2022-09-29T07:43:19;8.27;;;7.35;;
16294;SDS011;8255;49.560;8.244;2022-09-29T07:45:49;7.82;;;7.03;;
16294;SDS011;8255;49.560;8.244;2022-09-29T07:48:16;7.68;;;6.88;;
16294;SDS011;8255;49.560;8.244;2022-09-29T07:50:43;11.18;;;7.68;;
16294;SDS011;8255;49.560;8.244;2022-09-29T07:53:09;8.68;;;7.32;;
16294;SDS011;8255;49.560;8.244;2022-09-29T07:55:36;9.25;;;7.30;;
16294;SDS011;8255;49.560;8.244;2022-09-29T07:58:03;10.00;;;7.90;;
16294;SDS011;8255;49.560;8.244;2022-09-29T08:00:31;7.22;;;6.53;;
16294;SDS011;8255;49.560;8.244;2022-09-29T08:02:58;8.90;;;7.18;;
16294;SDS011;8255;49.560;8.244;2022-09-29T08:05:25;8.45;;;7.50;;
16294;SDS011;8255;49.560;8.244;2022-09-29T08:07:51;10.40;;;7.68;;
16294;SDS011;8255;49.560;8.244;2022-09-29T08:10:18;11.35;;;9.35;;
16294;SDS011;8255;49.560;8.244;2022-09-29T08:12:45;11.73;;;9.43;;
16294;SDS011;8255;49.560;8.244;2022-09-29T08:15:11;12.00;;;8.88;;
16294;SDS011;8255;49.560;8.244;2022-09-29T08:17:39;11.20;;;8.93;;
16294;SDS011;8255;49.560;8.244;2022-09-29T08:20:06;10.02;;;9.00;;
16294;SDS011;8255;49.560;8.244;2022-09-29T08:22:32;12.20;;;9.43;;
16294;SDS011;8255;49.560;8.244;2022-09-29T08:24:59;12.00;;;9.35;;
16294;SDS011;8255;49.560;8.244;2022-09-29T08:27:26;13.63;;;10.40;;
16294;SDS011;8255;49.560;8.244;2022-09-29T08:29:53;12.48;;;11.00;;
16294;SDS011;8255;49.560;8.244;2022-09-29T08:32:19;14.00;;;10.50;;
16294;SDS011;8255;49.560;8.244;2022-09-29T08:34:48;13.35;;;10.75;;
16294;SDS011;8255;49.560;8.244;2022-09-29T08:37:14;13.55;;;10.38;;
16294;SDS011;8255;49.560;8.244;2022-09-29T08:39:40;14.07;;;10.20;;
16294;SDS011;8255;49.560;8.244;2022-09-29T08:42:10;11.93;;;10.07;;
16294;SDS011;8255;49.560;8.244;2022-09-29T08:44:40;14.88;;;10.88;;
16294;SDS011;8255;49.560;8.244;2022-09-29T08:47:13;13.18;;;11.45;;
16294;SDS011;8255;49.560;8.244;2022-09-29T08:49:42;12.82;;;11.02;;
16294;SDS011;8255;49.560;8.244;2022-09-29T08:52:14;14.85;;;11.02;;
16294;SDS011;8255;49.560;8.244;2022-09-29T08:54:43;20.17;;;13.93;;
16294;SDS011;8255;49.560;8.244;2022-09-29T08:57:11;14.98;;;12.02;;
16294;SDS011;8255;49.560;8.244;2022-09-29T08:59:41;15.27;;;12.15;;
16294;SDS011;8255;49.560;8.244;2022-09-29T09:02:12;14.38;;;11.95;;
16294;SDS011;8255;49.560;8.244;2022-09-29T09:04:54;16.00;;;11.93;;
16294;SDS011;8255;49.560;8.244;2022-09-29T09:07:25;15.27;;;12.18;;
16294;SDS011;8255;49.560;8.244;2022-09-29T09:09:58;16.38;;;13.63;;
16294;SDS011;8255;49.560;8.244;2022-09-29T09:12:43;16.10;;;13.35;;
16294;SDS011;8255;49.560;8.244;2022-09-29T09:15:14;14.63;;;11.57;;
16294;SDS011;8255;49.560;8.244;2022-09-29T09:17:47;15.95;;;12.52;;
16294;SDS011;8255;49.560;8.244;2022-09-29T09:20:22;12.90;;;11.38;;
16294;SDS011;8255;49.560;8.244;2022-09-29T09:22:55;13.00;;;11.05;;
16294;SDS011;8255;49.560;8.244;2022-09-29T09:25:25;14.80;;;11.07;;
16294;SDS011;8255;49.560;8.244;2022-09-29T09:27:55;11.40;;;10.25;;
16294;SDS011;8255;49.560;8.244;2022-09-29T09:30:24;11.18;;;10.07;;
16294;SDS011;8255;49.560;8.244;2022-09-29T09:32:55;12.52;;;10.07;;
16294;SDS011;8255;49.560;8.244;2022-09-29T09:35:25;10.60;;;9.50;;
16294;SDS011;8255;49.560;8.244;2022-09-29T09:37:56;9.85;;;8.77;;
16294;SDS011;8255;49.560;8.244;2022-09-29T09:40:24;10.65;;;8.52;;
16294;SDS011;8255;49.560;8.244;2022-09-29T09:42:52;10.05;;;8.90;;
16294;SDS011;8255;49.560;8.244;2022-09-29T09:45:22;8.95;;;8.05;;
16294;SDS011;8255;49.560;8.244;2022-09-29T09:47:52;9.68;;;8.65;;
16294;SDS011;8255;49.560;8.244;2022-09-29T09:50:19;10.10;;;9.00;;
16294;SDS011;8255;49.560;8.244;2022-09-29T09:52:50;9.40;;;8.18;;
16294;SDS011;8255;49.560;8.244;2022-09-29T09:55:19;9.77;;;8.48;;
16294;SDS011;8255;49.560;8.244;2022-09-29T09:57:55;9.93;;;8.57;;
16294;SDS011;8255;49.560;8.244;2022-09-29T10:00:23;10.50;;;8.85;;
16294;SDS011;8255;49.560;8.244;2022-09-29T10:02:51;11.70;;;10.07;;
16294;SDS011;8255;49.560;8.244;2022-09-29T10:05:18;12.50;;;10.52;;
16294;SDS011;8255;49.560;8.244;2022-09-29T10:07:45;14.00;;;10.20;;
16294;SDS011;8255;49.560;8.244;2022-09-29T10:10:14;13.07;;;10.40;;
16294;SDS011;8255;49.560;8.244;2022-09-29T10:12:42;14.98;;;11.30;;
16294;SDS011;8255;49.560;8.244;2022-09-29T10:15:14;12.48;;;10.23;;
16294;SDS011;8255;49.560;8.244;2022-09-29T10:17:43;11.90;;;10.65;;
16294;SDS011;8255;49.560;8.244;2022-09-29T10:20:11;12.00;;;10.43;;
16294;SDS011;8255;49.560;8.244;2022-09-29T10:22:38;12.70;;;11.15;;
16294;SDS011;8255;49.560;8.244;2022-09-29T10:25:05;11.48;;;10.27;;
16294;SDS011;8255;49.560;8.244;2022-09-29T10:27:33;13.23;;;10.77;;
16294;SDS011;8255;49.560;8.244;2022-09-29T10:30:01;11.60;;;10.45;;
16294;SDS011;8255;49.560;8.244;2022-09-29T10:32:28;12.18;;;10.40;;
16294;SDS011;8255;49.560;8.244;2022-09-29T10:35:02;11.77;;;10.27;;
16294;SDS011;8255;49.560;8.244;2022-09-29T10:37:29;13.25;;;10.65;;
16294;SDS011;8255;49.560;8.244;2022-09-29T10:40:01;13.90;;;11.05;;
16294;SDS011;8255;49.560;8.244;2022-09-29T10:42:30;14.35;;;11.60;;
16294;SDS011;8255;49.560;8.244;2022-09-29T10:45:03;12.98;;;11.35;;
16294;SDS011;8255;49.560;8.244;2022-09-29T10:47:35;15.57;;;11.10;;
16294;SDS011;8255;49.560;8.244;2022-09-29T10:50:06;12.73;;;11.27;;
16294;SDS011;8255;49.560;8.244;2022-09-29T10:52:33;12.70;;;10.63;;
16294;SDS011;8255;49.560;8.244;2022-09-29T10:55:01;13.02;;;9.90;;
16294;SDS011;8255;49.560;8.244;2022-09-29T10:57:28;12.10;;;10.85;;
16294;SDS011;8255;49.560;8.244;2022-09-29T10:59:56;13.27;;;11.07;;
16294;SDS011;8255;49.560;8.244;2022-09-29T11:02:25;11.70;;;10.50;;
16294;SDS011;8255;49.560;8.244;2022-09-29T11:04:52;11.32;;;10.20;;
16294;SDS011;8255;49.560;8.244;2022-09-29T11:07:20;15.65;;;11.73;;
16294;SDS011;8255;49.560;8.244;2022-09-29T11:09:46;13.70;;;11.07;;
16294;SDS011;8255;49.560;8.244;2022-09-29T11:12:25;14.40;;;12.85;;
16294;SDS011;8255;49.560;8.244;2022-09-29T11:14:52;13.65;;;12.20;;
16294;SDS011;8255;49.560;8.244;2022-09-29T11:17:19;13.82;;;12.20;;
16294;SDS011;8255;49.560;8.244;2022-09-29T11:19:49;15.50;;;13.85;;
16294;SDS011;8255;49.560;8.244;2022-09-29T11:22:19;15.07;;;13.43;;
16294;SDS011;8255;49.560;8.244;2022-09-29T11:24:55;15.60;;;13.30;;
16294;SDS011;8255;49.560;8.244;2022-09-29T11:27:27;15.05;;;12.82;;
16294;SDS011;8255;49.560;8.244;2022-09-29T11:29:58;14.93;;;13.30;;
16294;SDS011;8255;49.560;8.244;2022-09-29T11:32:29;15.82;;;12.55;;
16294;SDS011;8255;49.560;8.244;2022-09-29T11:35:06;18.45;;;13.73;;
16294;SDS011;8255;49.560;8.244;2022-09-29T11:37:47;21.10;;;12.98;;
16294;SDS011;8255;49.560;8.244;2022-09-29T11:40:18;17.65;;;13.48;;
16294;SDS011;8255;49.560;8.244;2022-09-29T11:42:54;12.63;;;11.32;;
16294;SDS011;8255;49.560;8.244;2022-09-29T11:45:24;13.45;;;12.05;;
16294;SDS011;8255;49.560;8.244;2022-09-29T11:50:54;15.38;;;12.43;;
16294;SDS011;8255;49.560;8.244;2022-09-29T11:53:28;13.85;;;11.75;;
16294;SDS011;8255;49.560;8.244;2022-09-29T11:56:01;12.48;;;11.23;;
16294;SDS011;8255;49.560;8.244;2022-09-29T11:58:38;13.98;;;11.82;;
16294;SDS011;8255;49.560;8.244;2022-09-29T12:01:10;14.98;;;12.15;;
16294;SDS011;8255;49.560;8.244;2022-09-29T12:03:40;13.27;;;11.48;;
16294;SDS011;8255;49.560;8.244;2022-09-29T12:09:00;13.80;;;11.32;;
16294;SDS011;8255;49.560;8.244;2022-09-29T12:11:30;11.30;;;9.20;;
16294;SDS011;8255;49.560;8.244;2022-09-29T12:14:00;10.02;;;9.02;;
16294;SDS011;8255;49.560;8.244;2022-09-29T12:16:29;8.20;;;7.03;;
16294;SDS011;8255;49.560;8.244;2022-09-29T12:18:57;8.65;;;7.80;;
16294;SDS011;8255;49.560;8.244;2022-09-29T12:21:26;8.18;;;7.28;;
16294;SDS011;8255;49.560;8.244;2022-09-29T12:23:54;7.68;;;6.88;;
16294;SDS011;8255;49.560;8.244;2022-09-29T12:26:23;7.18;;;6.47;;
16294;SDS011;8255;49.560;8.244;2022-09-29T12:28:50;7.57;;;6.63;;
16294;SDS011;8255;49.560;8.244;2022-09-29T12:31:19;8.32;;;6.47;;
16294;SDS011;8255;49.560;8.244;2022-09-29T12:33:48;8.00;;;6.93;;
16294;SDS011;8255;49.560;8.244;2022-09-29T12:36:19;9.00;;;6.88;;
16294;SDS011;8255;49.560;8.244;2022-09-29T12:39:04;7.28;;;6.65;;
16294;SDS011;8255;49.560;8.244;2022-09-29T12:41:37;7.22;;;6.47;;
16294;SDS011;8255;49.560;8.244;2022-09-29T12:44:06;8.57;;;6.65;;
16294;SDS011;8255;49.560;8.244;2022-09-29T12:46:35;7.38;;;6.70;;
16294;SDS011;8255;49.560;8.244;2022-09-29T12:49:07;7.72;;;6.93;;
16294;SDS011;8255;49.560;8.244;2022-09-29T12:51:35;7.18;;;6.55;;
16294;SDS011;8255;49.560;8.244;2022-09-29T12:54:05;7.63;;;6.10;;
16294;SDS011;8255;49.560;8.244;2022-09-29T12:56:38;6.70;;;6.00;;
16294;SDS011;8255;49.560;8.244;2022-09-29T12:59:05;7.97;;;7.00;;
16294;SDS011;8255;49.560;8.244;2022-09-29T13:01:34;11.32;;;7.28;;
16294;SDS011;8255;49.560;8.244;2022-09-29T13:06:49;6.93;;;6.32;;
16294;SDS011;8255;49.560;8.244;2022-09-29T13:15:08;7.53;;;6.18;;
16294;SDS011;8255;49.560;8.244;2022-09-29T13:17:46;5.97;;;5.45;;
16294;SDS011;8255;49.560;8.244;2022-09-29T13:20:27;6.20;;;5.55;;
16294;SDS011;8255;49.560;8.244;2022-09-29T13:23:03;6.53;;;5.50;;
16294;SDS011;8255;49.560;8.244;2022-09-29T13:25:36;5.97;;;5.38;;
16294;SDS011;8255;49.560;8.244;2022-09-29T13:28:09;6.07;;;5.32;;
16294;SDS011;8255;49.560;8.244;2022-09-29T13:30:39;6.60;;;5.25;;
16294;SDS011;8255;49.560;8.244;2022-09-29T13:33:07;5.72;;;5.22;;
16294;SDS011;8255;49.560;8.244;2022-09-29T13:35:36;6.38;;;5.78;;
16294;SDS011;8255;49.560;8.244;2022-09-29T13:38:03;6.40;;;5.80;;
16294;SDS011;8255;49.560;8.244;2022-09-29T13:40:31;8.10;;;5.05;;
16294;SDS011;8255;49.560;8.244;2022-09-29T13:42:59;8.05;;;4.78;;
16294;SDS011;8255;49.560;8.244;2022-09-29T13:45:39;5.65;;;5.15;;
16294;SDS011;8255;49.560;8.244;2022-09-29T13:50:53;5.10;;;4.60;;
16294;SDS011;8255;49.560;8.244;2022-09-29T13:53:33;7.07;;;4.80;;
16294;SDS011;8255;49.560;8.244;2022-09-29T13:56:08;5.57;;;5.07;;
16294;SDS011;8255;49.560;8.244;2022-09-29T13:58:35;7.82;;;5.65;;
16294;SDS011;8255;49.560;8.244;2022-09-29T14:01:05;6.00;;;5.38;;
16294;SDS011;8255;49.560;8.244;2022-09-29T14:03:32;7.22;;;5.03;;
16294;SDS011;8255;49.560;8.244;2022-09-29T14:06:06;5.78;;;5.18;;
16294;SDS011;8255;49.560;8.244;2022-09-29T14:08:38;6.15;;;5.55;;
16294;SDS011;8255;49.560;8.244;2022-09-29T14:11:10;5.07;;;4.57;;
16294;SDS011;8255;49.560;8.244;2022-09-29T14:13:39;6.72;;;4.53;;
16294;SDS011;8255;49.560;8.244;2022-09-29T14:16:23;6.65;;;5.38;;
16294;SDS011;8255;49.560;8.244;2022-09-29T14:18:52;8.48;;;4.05;;
16294;SDS011;8255;49.560;8.244;2022-09-29T14:24:39;6.50;;;4.90;;
16294;SDS011;8255;49.560;8.244;2022-09-29T14:27:26;6.78;;;5.30;;
16294;SDS011;8255;49.560;8.244;2022-09-29T14:29:56;14.38;;;7.30;;
16294;SDS011;8255;49.560;8.244;2022-09-29T14:32:30;7.20;;;5.97;;
16294;SDS011;8255;49.560;8.244;2022-09-29T14:34:57;9.48;;;6.68;;
16294;SDS011;8255;49.560;8.244;2022-09-29T14:37:25;9.70;;;5.90;;
16294;SDS011;8255;49.560;8.244;2022-09-29T14:39:52;9.75;;;6.20;;
16294;SDS011;8255;49.560;8.244;2022-09-29T14:42:37;10.95;;;6.65;;
16294;SDS011;8255;49.560;8.244;2022-09-29T14:45:03;11.57;;;7.82;;
16294;SDS011;8255;49.560;8.244;2022-09-29T14:47:52;5.32;;;4.82;;
16294;SDS011;8255;49.560;8.244;2022-09-29T14:50:40;2.88;;;2.67;;
16294;SDS011;8255;49.560;8.244;2022-09-29T14:53:34;3.15;;;2.78;;
16294;SDS011;8255;49.560;8.244;2022-09-29T14:56:07;3.75;;;2.40;;
16294;SDS011;8255;49.560;8.244;2022-09-29T14:58:42;3.20;;;2.38;;
16294;SDS011;8255;49.560;8.244;2022-09-29T15:01:24;4.25;;;2.63;;
16294;SDS011;8255;49.560;8.244;2022-09-29T15:03:53;2.67;;;2.47;;
16294;SDS011;8255;49.560;8.244;2022-09-29T15:06:23;3.08;;;2.88;;
16294;SDS011;8255;49.560;8.244;2022-09-29T15:08:53;2.72;;;2.53;;
16294;SDS011;8255;49.560;8.244;2022-09-29T15:11:31;2.80;;;2.60;;
16294;SDS011;8255;49.560;8.244;2022-09-29T15:14:04;4.18;;;2.80;;
16294;SDS011;8255;49.560;8.244;2022-09-29T15:16:43;4.53;;;2.83;;
16294;SDS011;8255;49.560;8.244;2022-09-29T15:19:31;2.72;;;2.25;;
16294;SDS011;8255;49.560;8.244;2022-09-29T15:22:04;3.10;;;2.63;;
16294;SDS011;8255;49.560;8.244;2022-09-29T15:27:19;5.82;;;3.05;;
16294;SDS011;8255;49.560;8.244;2022-09-29T15:29:46;3.83;;;2.55;;
16294;SDS011;8255;49.560;8.244;2022-09-29T15:32:17;3.55;;;2.90;;